createdAt,value
2018-06-03T00:02:18.135Z,17.00
2018-06-03T00:04:44.157Z,16.90
2018-06-03T00:07:10.233Z,16.90
2018-06-03T00:09:36.305Z,17.00
2018-06-03T00:12:03.103Z,17.00
2018-06-03T00:14:29.186Z,16.90
2018-06-03T00:16:55.284Z,16.90
2018-06-03T00:19:21.375Z,16.90
2018-06-03T00:21:49.796Z,16.90
2018-06-03T00:24:15.996Z,16.80
2018-06-03T00:26:42.017Z,16.80
2018-06-03T00:29:08.068Z,16.80
2018-06-03T00:31:34.093Z,16.80
2018-06-03T00:34:00.229Z,16.80
2018-06-03T00:36:39.469Z,16.70
2018-06-03T00:39:05.480Z,16.70
2018-06-03T00:41:31.499Z,16.70
2018-06-03T00:43:57.551Z,16.70
2018-06-03T00:46:23.607Z,16.70
2018-06-03T00:48:49.622Z,16.70
2018-06-03T00:51:15.649Z,16.70
2018-06-03T00:53:41.700Z,16.70
2018-06-03T00:56:07.810Z,16.70
2018-06-03T00:58:33.820Z,16.80
2018-06-03T01:00:59.859Z,16.80
2018-06-03T01:03:25.892Z,16.80
2018-06-03T01:05:51.904Z,16.80
2018-06-03T01:08:17.960Z,16.80
2018-06-03T01:10:44.010Z,16.90
2018-06-03T01:13:10.025Z,16.90
2018-06-03T01:15:36.058Z,16.90
2018-06-03T01:18:03.081Z,16.90
2018-06-03T01:20:29.107Z,16.90
2018-06-03T01:22:55.137Z,16.90
2018-06-03T01:25:21.913Z,17.00
2018-06-03T01:27:47.918Z,16.90
2018-06-03T01:30:14.697Z,16.90
2018-06-03T01:32:40.700Z,16.90
2018-06-03T01:35:06.734Z,17.00
2018-06-03T01:37:32.747Z,17.00
2018-06-03T01:39:58.766Z,17.00
2018-06-03T01:42:24.853Z,16.90
2018-06-03T01:44:51.695Z,16.90
2018-06-03T01:47:17.729Z,16.90
2018-06-03T01:49:43.749Z,16.90
2018-06-03T01:52:09.773Z,16.80
2018-06-03T01:54:35.845Z,16.80
2018-06-03T01:57:01.868Z,16.80
2018-06-03T01:59:27.885Z,16.80
2018-06-03T02:01:53.944Z,16.80
2018-06-03T02:04:19.968Z,16.80
2018-06-03T02:06:46.752Z,16.80
2018-06-03T02:09:12.986Z,16.80
2018-06-03T02:11:38.983Z,16.80
2018-06-03T02:14:05.004Z,16.80
2018-06-03T02:16:31.021Z,16.80
2018-06-03T02:18:57.773Z,16.80
2018-06-03T02:21:23.810Z,16.80
2018-06-03T02:23:50.544Z,16.80
2018-06-03T02:26:16.577Z,16.80
2018-06-03T02:28:42.601Z,16.90
2018-06-03T02:31:08.644Z,16.80
2018-06-03T02:33:34.767Z,16.90
2018-06-03T02:36:00.784Z,16.90
2018-06-03T02:38:26.809Z,16.90
2018-06-03T02:40:52.865Z,16.90
2018-06-03T02:43:19.651Z,16.90
2018-06-03T02:45:45.660Z,16.90
2018-06-03T02:48:11.696Z,16.90
2018-06-03T02:50:37.720Z,16.90
2018-06-03T02:53:03.742Z,16.90
2018-06-03T02:55:29.776Z,16.90
2018-06-03T02:57:55.807Z,16.90
2018-06-03T03:00:21.831Z,16.90
2018-06-03T03:02:48.631Z,16.80
2018-06-03T03:05:14.675Z,16.90
2018-06-03T03:07:40.709Z,16.90
2018-06-03T03:10:06.806Z,16.80
2018-06-03T03:12:32.842Z,16.90
2018-06-03T03:14:58.848Z,16.90
2018-06-03T03:17:24.903Z,16.90
2018-06-03T03:19:51.657Z,17.00
2018-06-03T03:22:18.429Z,16.90
2018-06-03T03:24:44.507Z,16.90
2018-06-03T03:27:11.297Z,17.00
2018-06-03T03:29:38.078Z,16.90
2018-06-03T03:32:04.117Z,16.90
2018-06-03T03:34:30.149Z,17.00
2018-06-03T03:36:56.157Z,16.90
2018-06-03T03:39:22.948Z,16.90
2018-06-03T03:41:48.978Z,16.90
2018-06-03T03:44:15.017Z,17.00
2018-06-03T03:46:41.046Z,17.00
2018-06-03T03:49:07.056Z,17.00
2018-06-03T03:51:33.082Z,17.00
2018-06-03T03:53:59.099Z,17.00
2018-06-03T03:56:25.866Z,17.10
2018-06-03T03:58:51.909Z,17.00
2018-06-03T04:01:17.928Z,17.10
2018-06-03T04:04:16.452Z,17.00
2018-06-03T04:06:43.840Z,17.10
2018-06-03T04:09:11.225Z,17.10
2018-06-03T04:11:38.451Z,17.10
2018-06-03T04:14:05.706Z,17.20
2018-06-03T04:16:32.959Z,17.10
2018-06-03T04:19:00.135Z,17.10
2018-06-03T04:21:27.337Z,17.20
2018-06-03T04:26:21.719Z,17.20
2018-06-03T04:28:48.983Z,17.20
2018-06-03T04:31:16.200Z,17.20
2018-06-03T04:33:43.374Z,17.30
2018-06-03T04:36:10.601Z,17.30
2018-06-03T04:38:37.917Z,17.30
2018-06-03T04:41:05.160Z,17.30
2018-06-03T04:43:32.378Z,17.30
2018-06-03T04:45:59.574Z,17.30
2018-06-03T04:48:26.779Z,17.20
2018-06-03T04:50:54.098Z,17.20
2018-06-03T04:53:21.430Z,17.30
2018-06-03T04:55:48.576Z,17.30
2018-06-03T04:58:15.780Z,17.30
2018-06-03T05:00:43.027Z,17.40
2018-06-03T05:03:10.241Z,17.40
2018-06-03T05:05:37.788Z,17.40
2018-06-03T05:08:05.062Z,17.40
2018-06-03T05:10:32.286Z,17.40
2018-06-03T05:12:59.508Z,17.40
2018-06-03T05:15:26.727Z,17.40
2018-06-03T05:17:53.989Z,17.40
2018-06-03T05:20:21.233Z,17.50
2018-06-03T05:22:48.489Z,17.40
2018-06-03T05:25:15.684Z,17.50
2018-06-03T05:27:42.903Z,17.60
2018-06-03T05:30:10.154Z,17.50
2018-06-03T05:37:31.855Z,17.70
2018-06-03T05:39:59.056Z,17.80
2018-06-03T05:42:26.263Z,17.70
2018-06-03T05:44:53.519Z,17.80
2018-06-03T05:47:20.913Z,18.00
2018-06-03T05:49:48.157Z,18.00
2018-06-03T05:52:15.735Z,18.30
2018-06-03T05:54:42.937Z,18.30
2018-06-03T05:57:10.274Z,18.30
2018-06-03T05:59:37.545Z,18.30
2018-06-03T06:02:04.797Z,18.60
2018-06-03T06:04:32.085Z,18.90
2018-06-03T06:06:59.338Z,19.10
2018-06-03T06:09:26.590Z,19.30
2018-06-03T06:11:53.824Z,19.10
2018-06-03T06:14:21.195Z,19.10
2018-06-03T06:16:48.415Z,19.20
2018-06-03T06:19:15.632Z,19.20
2018-06-03T06:21:42.875Z,19.30
2018-06-03T06:24:10.218Z,19.30
2018-06-03T06:26:37.475Z,19.20
2018-06-03T06:29:04.733Z,18.90
2018-06-03T06:31:32.011Z,18.80
2018-06-03T06:33:59.570Z,18.90
2018-06-03T06:36:26.886Z,18.90
2018-06-03T06:38:54.107Z,18.80
2018-06-03T06:41:21.326Z,18.90
2018-06-03T06:43:48.580Z,19.00
2018-06-03T06:46:15.941Z,19.10
2018-06-03T06:48:43.166Z,19.30
2018-06-03T06:51:10.405Z,19.30
2018-06-03T06:53:37.664Z,19.20
2018-06-03T06:56:04.872Z,19.50
2018-06-03T06:58:32.097Z,19.60
2018-06-03T07:00:59.329Z,19.60
2018-06-03T07:03:26.635Z,19.40
2018-06-03T07:05:53.903Z,19.50
2018-06-03T07:08:21.193Z,19.60
2018-06-03T07:10:48.438Z,19.40
2018-06-03T07:13:15.784Z,19.30
2018-06-03T07:15:42.995Z,19.60
2018-06-03T07:18:10.306Z,20.00
2018-06-03T07:20:37.647Z,20.10
2018-06-03T07:23:04.894Z,20.30
2018-06-03T07:25:32.189Z,20.40
2018-06-03T07:27:59.519Z,20.00
2018-06-03T07:30:26.825Z,20.10
2018-06-03T07:32:54.079Z,20.00
2018-06-03T07:35:21.285Z,20.20
2018-06-03T07:37:48.581Z,20.50
2018-06-03T07:40:15.821Z,20.70
2018-06-03T07:42:43.094Z,20.80
2018-06-03T07:45:10.475Z,20.80
2018-06-03T07:47:37.875Z,20.30
2018-06-03T07:50:05.149Z,20.20
2018-06-03T07:52:32.328Z,20.20
2018-06-03T07:54:59.571Z,20.10
2018-06-03T07:57:26.794Z,20.50
2018-06-03T07:59:57.689Z,20.70
2018-06-03T08:02:25.120Z,20.40
2018-06-03T08:07:19.681Z,20.30
2018-06-03T08:09:46.909Z,20.20
2018-06-03T08:12:14.236Z,20.60
2018-06-03T08:14:41.545Z,20.40
2018-06-03T08:17:08.821Z,20.50
2018-06-03T08:19:36.501Z,20.40
2018-06-03T08:22:03.738Z,20.70
2018-06-03T08:24:31.087Z,20.80
2018-06-03T08:26:58.413Z,21.10
2018-06-03T08:29:25.672Z,20.70
2018-06-03T08:31:52.878Z,20.90
2018-06-03T08:34:20.108Z,21.30
2018-06-03T08:36:47.504Z,21.40
2018-06-03T08:39:14.755Z,21.40
2018-06-03T08:41:42.070Z,21.90
2018-06-03T08:44:09.532Z,22.00
2018-06-03T08:46:36.862Z,22.00
2018-06-03T08:49:04.154Z,22.10
2018-06-03T08:51:31.395Z,22.00
2018-06-03T08:53:58.653Z,22.20
2018-06-03T08:56:26.061Z,22.20
2018-06-03T08:58:53.251Z,22.40
2018-06-03T09:03:47.756Z,21.40
2018-06-03T09:06:15.034Z,21.60
2018-06-03T09:08:42.264Z,21.30
2018-06-03T09:11:09.468Z,21.20
2018-06-03T09:13:36.750Z,21.30
2018-06-03T09:16:04.073Z,21.70
2018-06-03T09:18:31.284Z,22.10
2018-06-03T09:20:58.496Z,21.90
2018-06-03T09:23:25.779Z,22.10
2018-06-03T09:25:53.035Z,22.00
2018-06-03T09:28:20.297Z,21.70
2018-06-03T09:30:52.081Z,21.90
2018-06-03T09:33:19.495Z,21.90
2018-06-03T09:35:46.749Z,22.10
2018-06-03T09:38:14.009Z,22.00
2018-06-03T09:40:41.213Z,22.00
2018-06-03T09:43:08.417Z,21.50
2018-06-03T09:45:35.667Z,21.60
2018-06-03T09:48:02.972Z,21.90
2018-06-03T09:50:30.171Z,22.10
2018-06-03T09:52:57.426Z,22.30
2018-06-03T09:55:24.681Z,22.20
2018-06-03T09:57:51.920Z,22.50
2018-06-03T10:02:51.253Z,22.70
2018-06-03T10:05:18.515Z,22.90
2018-06-03T10:07:45.737Z,22.80
2018-06-03T10:10:13.545Z,22.70
2018-06-03T10:12:40.720Z,22.80
2018-06-03T10:15:07.983Z,22.80
2018-06-03T10:17:35.264Z,23.00
2018-06-03T10:20:02.478Z,22.70
2018-06-03T10:22:29.708Z,22.80
2018-06-03T10:24:56.913Z,22.60
2018-06-03T10:27:24.172Z,22.80
2018-06-03T10:29:51.462Z,22.40
2018-06-03T10:32:18.725Z,22.10
2018-06-03T10:34:45.974Z,22.20
2018-06-03T10:37:13.193Z,22.30
2018-06-03T10:39:40.501Z,22.40
2018-06-03T10:42:07.768Z,22.10
2018-06-03T10:44:35.569Z,21.90
2018-06-03T10:47:02.869Z,21.80
2018-06-03T10:49:30.073Z,21.70
2018-06-03T10:51:57.418Z,22.00
2018-06-03T10:54:24.680Z,21.80
2018-06-03T10:56:51.838Z,21.80
2018-06-03T10:59:19.074Z,21.80
2018-06-03T11:01:46.314Z,22.10
2018-06-03T11:04:13.502Z,22.10
2018-06-03T11:06:40.781Z,22.00
2018-06-03T11:09:08.302Z,22.00
2018-06-03T11:11:35.646Z,22.30
2018-06-03T11:14:02.895Z,22.40
2018-06-03T11:16:30.148Z,22.60
2018-06-03T11:18:57.501Z,22.80
2018-06-03T11:21:24.810Z,23.30
2018-06-03T11:23:52.026Z,23.60
2018-06-03T11:26:19.272Z,24.20
2018-06-03T11:28:46.505Z,25.70
2018-06-03T11:31:13.826Z,26.10
2018-06-03T11:33:41.019Z,25.80
2018-06-03T11:36:08.327Z,25.40
2018-06-03T11:38:35.639Z,25.30
2018-06-03T11:43:30.120Z,24.00
2018-06-03T11:45:57.336Z,24.20
2018-06-03T11:48:24.540Z,24.20
2018-06-03T11:50:51.777Z,24.50
2018-06-03T11:53:19.031Z,24.30
2018-06-03T11:55:46.262Z,23.80
2018-06-03T11:58:53.606Z,23.00
2018-06-03T12:01:20.925Z,23.00
2018-06-03T12:03:48.488Z,22.80
2018-06-03T12:06:15.704Z,22.90
2018-06-03T12:08:42.941Z,23.00
2018-06-03T12:11:10.362Z,23.00
2018-06-03T12:13:37.904Z,23.70
2018-06-03T12:16:05.171Z,23.40
2018-06-03T12:18:32.465Z,23.20
2018-06-03T12:20:59.762Z,23.80
2018-06-03T12:23:27.295Z,24.10
2018-06-03T12:28:21.780Z,24.80
2018-06-03T12:30:49.079Z,25.30
2018-06-03T12:33:16.292Z,25.20
2018-06-03T12:35:43.541Z,25.00
2018-06-03T12:38:10.821Z,25.60
2018-06-03T12:40:38.337Z,25.00
2018-06-03T12:43:05.673Z,25.50
2018-06-03T12:45:32.929Z,25.30
2018-06-03T12:48:00.201Z,26.90
2018-06-03T12:50:27.476Z,26.50
2018-06-03T12:52:54.865Z,26.50
2018-06-03T12:55:22.181Z,26.30
2018-06-03T12:57:49.450Z,25.30
2018-06-03T13:00:17.010Z,24.90
2018-06-03T13:02:44.264Z,23.60
2018-06-03T13:05:11.546Z,23.60
2018-06-03T13:07:38.900Z,23.20
2018-06-03T13:10:06.504Z,23.30
2018-06-03T13:12:33.832Z,23.10
2018-06-03T13:15:01.122Z,23.00
2018-06-03T13:17:28.387Z,22.90
2018-06-03T13:19:55.615Z,22.80
2018-06-03T13:22:23.037Z,22.80
2018-06-03T13:24:50.281Z,22.80
2018-06-03T13:27:17.473Z,22.30
2018-06-03T13:29:44.809Z,22.50
2018-06-03T13:32:12.085Z,22.70
2018-06-03T13:34:39.333Z,22.70
2018-06-03T13:37:06.638Z,22.40
2018-06-03T13:39:33.905Z,22.20
2018-06-03T13:42:01.157Z,22.20
2018-06-03T13:44:28.405Z,22.20
2018-06-03T13:46:55.802Z,22.30
2018-06-03T13:49:23.041Z,22.20
2018-06-03T13:51:50.247Z,22.20
2018-06-03T13:54:17.601Z,22.40
2018-06-03T13:56:44.825Z,22.70
2018-06-03T13:59:12.085Z,22.90
2018-06-03T14:01:39.367Z,22.90
2018-06-03T14:04:06.554Z,22.70
2018-06-03T14:06:33.784Z,22.70
2018-06-03T14:11:28.291Z,22.40
2018-06-03T14:13:55.613Z,22.50
2018-06-03T14:16:22.873Z,22.80
2018-06-03T14:18:50.068Z,22.90
2018-06-03T14:21:17.350Z,22.70
2018-06-03T14:23:44.640Z,22.80
2018-06-03T14:26:11.901Z,22.90
2018-06-03T14:28:39.179Z,23.20
2018-06-03T14:31:06.695Z,23.30
2018-06-03T14:33:34.079Z,23.40
2018-06-03T14:36:01.317Z,23.20
2018-06-03T14:38:28.598Z,23.00
2018-06-03T14:40:55.928Z,23.40
2018-06-03T14:43:23.166Z,23.40
2018-06-03T14:45:50.548Z,23.20
2018-06-03T14:48:17.804Z,22.90
2018-06-03T14:50:45.034Z,22.80
2018-06-03T14:53:12.252Z,22.80
2018-06-03T14:58:06.782Z,23.00
2018-06-03T15:00:34.004Z,23.00
2018-06-03T15:03:01.365Z,22.90
2018-06-03T15:05:28.636Z,23.10
2018-06-03T15:07:56.443Z,23.40
2018-06-03T15:10:23.737Z,23.40
2018-06-03T15:12:51.332Z,23.80
2018-06-03T15:15:18.644Z,23.50
2018-06-03T15:17:45.837Z,23.80
2018-06-03T15:20:13.085Z,24.30
2018-06-03T15:22:40.415Z,24.60
2018-06-03T15:25:07.679Z,24.70
2018-06-03T15:27:34.876Z,24.60
2018-06-03T15:30:02.450Z,24.40
2018-06-03T15:32:29.811Z,24.40
2018-06-03T15:34:57.012Z,24.20
2018-06-03T15:37:24.228Z,24.00
2018-06-03T15:42:18.741Z,23.60
2018-06-03T15:44:46.073Z,23.20
2018-06-03T15:47:13.456Z,23.00
2018-06-03T15:49:40.995Z,23.00
2018-06-03T15:54:35.783Z,22.70
2018-06-03T15:57:03.107Z,23.10
2018-06-03T15:59:30.797Z,23.00
2018-06-03T16:01:57.995Z,22.90
2018-06-03T16:04:25.288Z,23.30
2018-06-03T16:06:52.591Z,24.90
2018-06-03T16:11:46.538Z,27.70
2018-06-03T16:14:13.357Z,27.30
2018-06-03T16:16:40.660Z,26.60
2018-06-03T16:19:08.237Z,26.30
2018-06-03T16:21:36.222Z,26.50
2018-06-03T16:25:22.931Z,26.80
2018-06-03T16:30:17.405Z,26.10
2018-06-03T16:32:44.777Z,26.90
2018-06-03T16:35:12.033Z,27.00
2018-06-03T16:37:39.302Z,27.70
2018-06-03T16:40:07.582Z,28.60
2018-06-03T16:42:34.772Z,28.90
2018-06-03T16:45:02.205Z,29.10
2018-06-03T16:47:29.426Z,28.80
2018-06-03T16:49:56.710Z,26.90
2018-06-03T16:52:23.924Z,27.50
2018-06-03T16:54:51.171Z,27.40
2018-06-03T16:57:18.537Z,28.40
2018-06-03T16:59:45.754Z,28.60
2018-06-03T17:02:12.587Z,27.70
2018-06-03T17:04:39.909Z,26.20
2018-06-03T17:07:07.275Z,26.80
2018-06-03T17:09:34.485Z,27.10
2018-06-03T17:12:01.696Z,26.30
2018-06-03T17:14:28.868Z,25.60
2018-06-03T17:16:56.089Z,25.10
2018-06-03T17:19:23.332Z,24.70
2018-06-03T17:21:50.496Z,24.50
2018-06-03T17:24:17.705Z,24.50
2018-06-03T17:26:44.966Z,24.30
2018-06-03T17:29:12.237Z,23.90
2018-06-03T17:34:07.186Z,23.00
2018-06-03T17:36:34.470Z,23.00
2018-06-03T17:39:01.722Z,23.40
2018-06-03T17:41:29.217Z,23.50
2018-06-03T17:43:56.420Z,23.40
2018-06-03T17:46:23.629Z,23.30
2018-06-03T17:48:50.969Z,23.20
2018-06-03T17:51:18.228Z,23.00
2018-06-03T17:53:45.539Z,22.90
2018-06-03T17:56:12.790Z,22.60
2018-06-03T17:58:40.284Z,22.50
2018-06-03T18:01:07.537Z,22.50
2018-06-03T18:03:34.876Z,22.20
2018-06-03T18:06:02.063Z,22.20
2018-06-03T18:08:29.433Z,21.90
2018-06-03T18:13:23.974Z,21.70
2018-06-03T18:15:51.206Z,21.50
2018-06-03T18:18:18.409Z,21.40
2018-06-03T18:20:45.596Z,21.40
2018-06-03T18:23:12.872Z,21.40
2018-06-03T18:25:40.112Z,21.30
2018-06-03T18:28:07.419Z,21.20
2018-06-03T18:30:34.704Z,21.10
2018-06-03T18:33:02.744Z,21.00
2018-06-03T18:35:29.917Z,21.00
2018-06-03T18:37:57.237Z,21.00
2018-06-03T18:40:24.501Z,20.90
2018-06-03T18:42:51.701Z,20.80
2018-06-03T18:45:19.052Z,20.60
2018-06-03T18:47:46.417Z,20.40
2018-06-03T18:50:13.678Z,20.30
2018-06-03T18:52:40.934Z,20.30
2018-06-03T18:55:08.213Z,20.30
2018-06-03T18:57:35.472Z,20.20
2018-06-03T19:00:02.730Z,20.10
2018-06-03T19:02:30.112Z,20.10
2018-06-03T19:04:57.354Z,20.00
2018-06-03T19:07:24.563Z,20.00
2018-06-03T19:09:52.038Z,19.90
2018-06-03T19:12:19.208Z,19.80
2018-06-03T19:14:46.444Z,19.80
2018-06-03T19:17:14.146Z,19.70
2018-06-03T19:19:41.568Z,19.60
2018-06-03T19:22:08.994Z,19.50
2018-06-03T19:24:36.853Z,19.40
2018-06-03T19:27:04.136Z,19.40
2018-06-03T19:29:31.393Z,19.30
2018-06-03T19:31:59.239Z,19.20
2018-06-03T19:34:26.538Z,19.20
2018-06-03T19:36:54.113Z,19.10
2018-06-03T19:39:21.452Z,19.00
2018-06-03T19:41:48.677Z,19.00
2018-06-03T19:44:15.928Z,19.00
2018-06-03T19:46:43.257Z,19.00
2018-06-03T19:49:10.537Z,18.90
2018-06-03T19:51:37.820Z,18.80
2018-06-03T19:54:05.085Z,18.80
2018-06-03T19:56:33.336Z,18.80
2018-06-03T19:59:00.625Z,18.70
2018-06-03T20:01:27.893Z,18.70
2018-06-03T20:03:55.087Z,18.60
2018-06-03T20:06:22.430Z,18.60
2018-06-03T20:08:50.274Z,18.50
2018-06-03T20:11:17.499Z,18.50
2018-06-03T20:13:44.749Z,18.40
2018-06-03T20:16:12.117Z,18.40
2018-06-03T20:21:07.637Z,18.30
2018-06-03T20:23:34.973Z,18.30
2018-06-03T20:26:02.282Z,18.20
2018-06-03T20:28:29.848Z,18.20
2018-06-03T20:30:57.155Z,18.10
2018-06-03T20:33:25.403Z,18.10
2018-06-03T20:35:52.626Z,18.20
2018-06-03T20:38:19.922Z,18.10
2018-06-03T20:40:47.183Z,18.10
2018-06-03T20:43:14.385Z,18.10
2018-06-03T20:45:41.743Z,18.00
2018-06-03T20:48:08.964Z,17.90
2018-06-03T20:50:36.372Z,17.90
2018-06-03T20:53:03.829Z,17.80
2018-06-03T20:55:31.258Z,17.80
2018-06-03T20:57:58.476Z,17.80
2018-06-03T21:00:25.665Z,17.80
2018-06-03T21:02:52.978Z,17.70
2018-06-03T21:05:20.222Z,17.70
2018-06-03T21:07:47.469Z,17.70
2018-06-03T21:10:14.669Z,17.60
2018-06-03T21:12:41.985Z,17.60
2018-06-03T21:17:36.450Z,17.60
2018-06-03T21:20:03.850Z,17.60
2018-06-03T21:22:31.049Z,17.50
2018-06-03T21:24:58.287Z,17.50
2018-06-03T21:27:25.543Z,17.50
2018-06-03T21:29:52.753Z,17.40
2018-06-03T21:32:19.968Z,17.40
2018-06-03T21:34:47.421Z,17.40
2018-06-03T21:37:14.624Z,17.50
2018-06-03T21:39:41.819Z,17.40
2018-06-03T21:42:09.074Z,17.40
2018-06-03T21:44:36.324Z,17.30
2018-06-03T21:47:03.594Z,17.30
2018-06-03T21:49:30.815Z,17.30
2018-06-03T21:51:58.023Z,17.20
2018-06-03T21:54:25.432Z,17.20
2018-06-03T21:56:52.824Z,17.20
2018-06-03T21:59:20.069Z,17.20
2018-06-03T22:01:47.310Z,17.20
2018-06-03T22:04:14.545Z,17.10
2018-06-03T22:06:41.787Z,17.10
2018-06-03T22:09:09.244Z,17.00
2018-06-03T22:11:36.497Z,17.00
2018-06-03T22:14:03.725Z,17.00
2018-06-03T22:16:30.960Z,17.00
2018-06-03T22:18:58.175Z,16.90
2018-06-03T22:21:25.506Z,16.80
2018-06-03T22:23:52.820Z,16.80
2018-06-03T22:26:20.046Z,16.80
2018-06-03T22:28:47.273Z,16.70
2018-06-03T22:31:14.530Z,16.70
2018-06-03T22:33:41.776Z,16.70
2018-06-03T22:36:09.013Z,16.60
2018-06-03T22:38:36.284Z,16.60
2018-06-03T22:41:03.586Z,16.50
2018-06-03T22:43:30.839Z,16.50
2018-06-03T22:45:58.108Z,16.50
2018-06-03T22:48:25.322Z,16.40
2018-06-03T22:50:52.608Z,16.40
2018-06-03T22:55:47.044Z,16.40
2018-06-03T22:58:14.313Z,16.30
2018-06-03T23:00:41.567Z,16.30
2018-06-03T23:05:42.826Z,16.20
2018-06-03T23:08:10.125Z,16.20
2018-06-03T23:10:37.708Z,16.20
2018-06-03T23:13:06.057Z,16.20
2018-06-03T23:15:33.317Z,16.10
2018-06-03T23:18:00.584Z,16.10
2018-06-03T23:20:27.951Z,16.10
2018-06-03T23:22:55.140Z,16.10
2018-06-03T23:25:22.373Z,16.00
2018-06-03T23:27:49.653Z,16.00
2018-06-03T23:30:16.891Z,16.00
2018-06-03T23:32:44.150Z,16.00
2018-06-03T23:35:11.456Z,16.00
2018-06-03T23:37:38.738Z,15.90
2018-06-03T23:40:06.052Z,15.90
2018-06-03T23:42:33.564Z,15.90
2018-06-03T23:45:00.817Z,15.90
2018-06-03T23:47:28.108Z,15.90
2018-06-03T23:49:55.679Z,15.90
2018-06-03T23:52:22.892Z,15.80
2018-06-03T23:54:50.109Z,15.80
2018-06-03T23:57:17.327Z,15.80
2018-06-03T23:59:44.533Z,15.80
